createdAt,value
2017-11-01T06:55:41.302Z,11.29
2017-11-01T06:58:15.677Z,11.07
2017-11-01T07:00:44.678Z,11.46
2017-11-01T07:03:13.818Z,11.41
2017-11-01T07:05:42.347Z,11.03
2017-11-01T07:08:11.880Z,10.93
2017-11-01T07:10:41.171Z,10.87
2017-11-01T07:13:17.857Z,10.86
2017-11-01T07:15:46.345Z,11.24
2017-11-01T07:18:17.281Z,11.29
2017-11-01T07:20:47.082Z,11.44
2017-11-01T07:23:18.535Z,11.39
2017-11-01T07:25:48.576Z,11.21
2017-11-01T07:28:17.254Z,11.43
2017-11-01T07:30:48.033Z,11.60
2017-11-01T07:33:16.761Z,11.43
2017-11-01T07:35:46.368Z,11.33
2017-11-01T07:38:15.969Z,11.32
2017-11-01T07:40:45.255Z,11.46
2017-11-01T07:43:15.142Z,11.22
2017-11-01T07:45:43.681Z,11.04
2017-11-01T07:48:12.599Z,11.47
2017-11-01T07:50:41.066Z,11.59
2017-11-01T07:53:16.793Z,11.31
2017-11-01T07:55:46.253Z,11.70
2017-11-01T07:58:16.205Z,11.83
2017-11-01T08:00:45.920Z,11.97
2017-11-01T08:03:14.612Z,11.53
2017-11-01T08:05:43.965Z,12.01
2017-11-01T08:08:13.629Z,11.70
2017-11-01T08:10:42.229Z,11.56
2017-11-01T08:13:13.875Z,11.48
2017-11-01T08:15:42.685Z,11.59
2017-11-01T08:18:13.114Z,10.91
2017-11-01T08:20:41.578Z,11.02
2017-11-01T08:23:10.079Z,11.44
2017-11-01T08:25:38.597Z,11.59
2017-11-01T08:28:07.335Z,11.60
2017-11-01T08:30:35.864Z,11.61
2017-11-01T08:33:05.081Z,11.63
2017-11-01T08:35:33.525Z,11.92
2017-11-01T08:38:02.765Z,11.69
2017-11-01T08:40:32.621Z,11.93
2017-11-01T08:43:01.372Z,12.07
2017-11-01T08:45:29.822Z,12.19
2017-11-01T08:47:59.188Z,12.39
2017-11-01T08:50:27.719Z,12.72
2017-11-01T08:52:57.467Z,12.55
2017-11-01T08:55:28.436Z,12.46
2017-11-01T08:57:57.661Z,12.39
2017-11-01T09:00:26.423Z,12.58
2017-11-01T09:02:55.873Z,12.24
2017-11-01T09:05:24.340Z,12.57
2017-11-01T09:07:54.496Z,12.57
2017-11-01T09:10:24.729Z,12.57
2017-11-01T09:12:54.424Z,12.50
2017-11-01T09:15:23.049Z,12.32
2017-11-01T09:17:51.580Z,12.36
2017-11-01T09:20:21.784Z,12.31
2017-11-01T09:22:52.288Z,12.35
2017-11-01T09:25:20.730Z,12.27
2017-11-01T09:27:49.577Z,12.44
2017-11-01T09:30:18.025Z,12.60
2017-11-01T09:32:46.734Z,12.73
2017-11-01T09:35:15.587Z,12.60
2017-11-01T09:37:44.060Z,12.71
2017-11-01T09:40:12.538Z,12.32
2017-11-01T09:42:42.002Z,11.80
2017-11-01T09:45:10.548Z,11.80
2017-11-01T09:47:39.020Z,11.77
2017-11-01T09:50:07.755Z,12.02
2017-11-01T09:52:36.216Z,11.97
2017-11-01T09:55:05.445Z,12.12
2017-11-01T09:57:34.877Z,12.22
2017-11-01T10:00:04.412Z,12.31
2017-11-01T10:02:33.453Z,12.31
2017-11-01T10:05:05.968Z,12.43
